Time,TemperatureF,DewpointF,PressureIn,WindDirection,WindDirectionDegrees,WindSpeedMPH,WindSpeedGustMPH,Humidity,HourlyPrecipIn,Conditions,Clouds,dailyrainin,SolarRadiationWatts/m^2,SoftwareType,DateUTC
2013-12-13 00:00:00,25.0,24.0,-100.00,NNE,15,1.0,3.0,95,-99.99,,,0.00,0.000000,,2013-12-13 07:00:00,
2013-12-13 00:42:00,25.0,24.0,-100.00,NNE,15,1.0,3.0,95,-99.99,,,0.00,0.000000,,2013-12-13 07:42:00,
2013-12-13 00:52:00,25.0,24.0,-100.00,NNE,15,1.0,3.0,95,-99.99,,,0.00,0.000000,,2013-12-13 07:52:00,
2013-12-13 03:00:00,26.0,26.0,-100.00,SSE,167,1.0,3.0,99,-99.99,,,0.00,0.000000,,2013-12-13 10:00:00,
2013-12-13 03:53:00,26.0,26.0,-100.00,SSE,167,1.0,3.0,99,-99.99,,,0.00,0.000000,,2013-12-13 10:53:00,
2013-12-13 04:00:00,27.0,27.0,-100.00,WNW,301,2.0,4.0,98,-99.99,,,0.00,0.000000,,2013-12-13 11:00:00,
2013-12-13 04:42:00,27.0,27.0,-100.00,WNW,301,2.0,4.0,98,-99.99,,,0.00,0.000000,,2013-12-13 11:42:00,
2013-12-13 04:53:00,27.0,27.0,-100.00,WNW,301,2.0,4.0,98,-99.99,,,0.00,0.000000,,2013-12-13 11:53:00,
2013-12-13 05:00:00,30.0,30.0,-100.00,SSE,163,2.0,4.0,100,-99.99,,,0.00,0.000000,,2013-12-13 12:00:00,
2013-12-13 05:42:00,30.0,30.0,-100.00,SSE,163,2.0,4.0,100,-99.99,,,0.00,0.000000,,2013-12-13 12:42:00,
2013-12-13 05:53:00,30.0,30.0,-100.00,SSE,163,2.0,4.0,100,-99.99,,,0.00,0.000000,,2013-12-13 12:53:00,
2013-12-13 06:00:00,30.0,30.0,-100.00,ESE,114,2.0,4.0,98,-99.99,,,0.00,0.000000,,2013-12-13 13:00:00,
2013-12-13 06:42:00,30.0,30.0,-100.00,ESE,114,2.0,4.0,98,-99.99,,,0.00,0.000000,,2013-12-13 13:42:00,
2013-12-13 06:52:00,30.0,30.0,-100.00,ESE,114,2.0,4.0,98,-99.99,,,0.00,0.000000,,2013-12-13 13:52:00,
2013-12-13 07:00:00,32.0,32.0,-100.00,ESE,113,2.0,4.0,98,-99.99,,,0.00,0.000000,,2013-12-13 14:00:00,
2013-12-13 07:42:00,32.0,32.0,-100.00,ESE,113,2.0,4.0,98,-99.99,,,0.00,0.000000,,2013-12-13 14:42:00,
2013-12-13 07:53:00,32.0,32.0,-100.00,ESE,113,2.0,4.0,98,-99.99,,,0.00,0.000000,,2013-12-13 14:53:00,
2013-12-13 08:00:00,31.0,30.0,-100.00,ESE,123,2.0,3.0,98,-99.99,,,0.00,0.000000,,2013-12-13 15:00:00,
2013-12-13 08:53:00,31.0,30.0,-100.00,ESE,123,2.0,3.0,98,-99.99,,,0.00,0.000000,,2013-12-13 15:53:00,
2013-12-13 09:00:00,32.0,31.0,-100.00,ESE,121,3.0,5.0,96,-99.99,,,0.00,13.370000,,2013-12-13 16:00:00,
2013-12-13 09:53:00,32.0,31.0,-100.00,ESE,121,3.0,5.0,96,-99.99,,,0.00,13.370000,,2013-12-13 16:53:00,
2013-12-13 10:00:00,33.0,32.0,-100.00,SE,142,1.0,2.0,94,-99.99,,,0.00,41.840000,,2013-12-13 17:00:00,
2013-12-13 10:52:00,33.0,32.0,-100.00,SE,142,1.0,2.0,94,-99.99,,,0.00,41.840000,,2013-12-13 17:52:00,
2013-12-13 11:00:00,34.0,32.0,-100.00,ESE,102,4.0,5.0,89,-99.99,,,0.00,86.930000,,2013-12-13 18:00:00,
2013-12-13 11:52:00,34.0,32.0,-100.00,ESE,102,4.0,5.0,89,-99.99,,,0.00,86.930000,,2013-12-13 18:52:00,
2013-12-13 12:00:00,35.0,32.0,-100.00,ESE,108,6.0,8.0,87,-99.99,,,0.00,101.580002,,2013-12-13 19:00:00,
2013-12-13 12:42:00,35.0,32.0,-100.00,ESE,108,6.0,8.0,87,-99.99,,,0.00,101.580002,,2013-12-13 19:42:00,
2013-12-13 12:52:00,35.0,32.0,-100.00,ESE,108,6.0,8.0,87,-99.99,,,0.00,101.580002,,2013-12-13 19:52:00,
2013-12-13 13:00:00,34.0,33.0,-100.00,SE,137,6.0,9.0,95,-99.99,,,0.00,108.080002,,2013-12-13 20:00:00,
2013-12-13 13:42:00,34.0,33.0,-100.00,SE,137,6.0,9.0,95,-99.99,,,0.00,108.080002,,2013-12-13 20:42:00,
2013-12-13 13:53:00,34.0,33.0,-100.00,SE,137,6.0,9.0,95,-99.99,,,0.00,108.080002,,2013-12-13 20:53:00,
2013-12-13 14:00:00,34.0,34.0,-100.00,ESE,105,7.0,9.0,97,-99.99,,,0.00,101.580002,,2013-12-13 21:00:00,
2013-12-13 14:53:00,34.0,34.0,-100.00,ESE,105,7.0,9.0,97,-99.99,,,0.00,101.580002,,2013-12-13 21:53:00,
2013-12-13 15:00:00,35.0,33.0,-100.00,East,94,5.0,9.0,93,-99.99,,,0.00,37.189999,,2013-12-13 22:00:00,
2013-12-13 15:53:00,35.0,33.0,-100.00,East,94,5.0,9.0,93,-99.99,,,0.00,37.189999,,2013-12-13 22:53:00,
2013-12-13 16:00:00,35.0,33.0,-100.00,East,100,5.0,8.0,90,-99.99,,,0.00,27.780001,,2013-12-13 23:00:00,
2013-12-13 16:42:00,35.0,33.0,-100.00,East,100,5.0,8.0,90,-99.99,,,0.00,27.780001,,2013-12-13 23:42:00,
2013-12-13 16:53:00,35.0,33.0,-100.00,East,100,5.0,8.0,90,-99.99,,,0.00,27.780001,,2013-12-13 23:53:00,
2013-12-13 17:00:00,35.0,32.0,-100.00,East,99,5.0,8.0,88,-99.99,,,0.00,1.050000,,2013-12-14 00:00:00,
2013-12-13 17:42:00,35.0,32.0,-100.00,East,99,5.0,8.0,88,-99.99,,,0.00,1.050000,,2013-12-14 00:42:00,
2013-12-13 17:52:00,35.0,32.0,-100.00,East,99,5.0,8.0,88,-99.99,,,0.00,1.050000,,2013-12-14 00:52:00,
2013-12-13 18:00:00,35.0,33.0,-100.00,East,93,5.0,7.0,90,-99.99,,,0.00,0.000000,,2013-12-14 01:00:00,
2013-12-13 18:42:00,35.0,33.0,-100.00,East,93,5.0,7.0,90,-99.99,,,0.00,0.000000,,2013-12-14 01:42:00,
2013-12-13 18:52:00,35.0,33.0,-100.00,East,93,5.0,7.0,90,-99.99,,,0.00,0.000000,,2013-12-14 01:52:00,
2013-12-13 19:00:00,35.0,33.0,-100.00,SE,127,5.0,7.0,91,-99.99,,,0.00,0.000000,,2013-12-14 02:00:00,
2013-12-13 19:42:00,35.0,33.0,-100.00,SE,127,5.0,7.0,91,-99.99,,,0.00,0.000000,,2013-12-14 02:42:00,
2013-12-13 19:52:00,35.0,33.0,-100.00,SE,127,5.0,7.0,91,-99.99,,,0.00,0.000000,,2013-12-14 02:52:00,
2013-12-13 20:00:00,36.0,33.0,-100.00,ESE,119,4.0,5.0,90,-99.99,,,0.00,0.000000,,2013-12-14 03:00:00,
2013-12-13 20:43:00,36.0,33.0,-100.00,ESE,119,4.0,5.0,90,-99.99,,,0.00,0.000000,,2013-12-14 03:43:00,
2013-12-13 20:54:00,36.0,33.0,-100.00,ESE,119,4.0,5.0,90,-99.99,,,0.00,0.000000,,2013-12-14 03:54:00,
2013-12-13 21:00:00,36.0,33.0,-100.00,ESE,104,5.0,7.0,89,-99.99,,,0.00,0.000000,,2013-12-14 04:00:00,
2013-12-13 21:43:00,36.0,33.0,-100.00,ESE,104,5.0,7.0,89,-99.99,,,0.00,0.000000,,2013-12-14 04:43:00,
2013-12-13 21:53:00,36.0,33.0,-100.00,ESE,104,5.0,7.0,89,-99.99,,,0.00,0.000000,,2013-12-14 04:53:00,
2013-12-13 22:00:00,35.0,33.0,-100.00,East,90,4.0,6.0,92,-99.99,,,0.00,0.000000,,2013-12-14 05:00:00,
2013-12-13 22:42:00,35.0,33.0,-100.00,East,90,4.0,6.0,92,-99.99,,,0.00,0.000000,,2013-12-14 05:42:00,
2013-12-13 22:53:00,35.0,33.0,-100.00,East,90,4.0,6.0,92,-99.99,,,0.00,0.000000,,2013-12-14 05:53:00,
2013-12-13 23:00:00,35.0,33.0,-100.00,SE,131,4.0,5.0,90,-99.99,,,0.00,0.000000,,2013-12-14 06:00:00,
2013-12-13 23:42:00,35.0,33.0,-100.00,SE,131,4.0,5.0,90,-99.99,,,0.00,0.000000,,2013-12-14 06:42:00,
2013-12-13 23:52:00,35.0,33.0,-100.00,SE,131,4.0,5.0,90,-99.99,,,0.00,0.000000,,2013-12-14 06:52:00,